Main page
METAR-TAF:

METAR-TAF

Airports :

Bahrain International Airport

Bahrain, Bahrain

latitude: 26-16N, longitude: 050-39E, elevation: 2 m

Current weather observation

The report was made 28 minutes ago, at 23:00 UTC
Wind 6 kt from the West/Northwest, varying between West and Northwest
Temperature 15°C
Humidity 72%
Pressure 1018 hPa
Visibility 10 km or more
no clouds below 1500 m and no cumulonimbus

METAR: OBBI 212300Z 29006KT 260V320 CAVOK 15/10 Q1018 NOSIG

Time: 02:28 (23:28 UTC)

Forecast

The report was made 6 hours and 28 minutes ago, at 17:00 UTC
Forecast valid from 21 at 18 UTC to 23 at 00 UTC
Wind 10 kt from the Northwest
Visibility 10 km or more
no clouds below 1500 m and no cumulonimbus

TAF: OBBI 211700Z 2118/2300 31010KT CAVOK

Weather observations and forecasts of more than 4000 airports (METAR and TAF reports).

The available stations are represented by yellow and red dots on the map.

Hover mouse over dot to see the name of the station.

Then click to see weather observations and forecasts.

To change the map : click on the green buttons with a black cross to zoom in, on the green button with a dash to zoom out, or on the green arrows for adjacent maps.


METAR-TAF: